GEC441 KMEM-KPNS
Flight info
| Callsign | GEC441 |
|---|---|
| Flight time | 0h 53m |
| Altitude | 35000 |
| Route | PIEPE6 IBUFY SJI |
| Aircraft | MD11/H-SDE1E2E3FGHIJ2J3J4J5M1RWXY/LB1D1 |
Departure
| Time | 2026-04-24 21:24 |
|---|---|
| Airport | Memphis International Airport (KMEM) |
Arrival
| Time | 2026-04-24 22:17 |
|---|---|
| Airport | Pensacola International Airport (KPNS) |
| Time | Latitude | Longitude | Altitude | Speed | Heading |
|---|---|---|---|---|---|
| 2026-04-24 20:46 | 35.05982 | -89.96188 | 333 ft | 0 kts | 181° |
| 2026-04-24 21:08 | 35.06001 | -89.96188 | 333 ft | 4 kts | 178° |
| 2026-04-24 21:09 | 35.06020 | -89.96187 | 333 ft | 2 kts | 214° |
| 2026-04-24 21:09 | 35.06037 | -89.96171 | 333 ft | 4 kts | 245° |
| 2026-04-24 21:09 | 35.06041 | -89.96145 | 333 ft | 4 kts | 277° |
| 2026-04-24 21:09 | 35.06040 | -89.96126 | 333 ft | 1 kts | 270° |
| 2026-04-24 21:10 | 35.06040 | -89.96123 | 333 ft | 0 kts | 270° |
| 2026-04-24 21:14 | 35.06040 | -89.96146 | 333 ft | 4 kts | 270° |
| 2026-04-24 21:14 | 35.06041 | -89.96188 | 333 ft | 6 kts | 272° |
| 2026-04-24 21:14 | 35.06042 | -89.96257 | 336 ft | 11 kts | 271° |
| 2026-04-24 21:14 | 35.06045 | -89.96355 | 338 ft | 11 kts | 272° |
| 2026-04-24 21:15 | 35.06048 | -89.96440 | 338 ft | 9 kts | 268° |
| 2026-04-24 21:15 | 35.06024 | -89.96490 | 333 ft | 6 kts | 221° |
| 2026-04-24 21:15 | 35.06010 | -89.96502 | 333 ft | 0 kts | 215° |
| 2026-04-24 21:16 | 35.05998 | -89.96512 | 335 ft | 6 kts | 215° |
| 2026-04-24 21:16 | 35.05946 | -89.96560 | 334 ft | 13 kts | 226° |
| 2026-04-24 21:17 | 35.05926 | -89.96690 | 334 ft | 20 kts | 280° |
| 2026-04-24 21:17 | 35.05929 | -89.96844 | 338 ft | 17 kts | 265° |
| 2026-04-24 21:17 | 35.05927 | -89.96979 | 338 ft | 14 kts | 274° |
| 2026-04-24 21:17 | 35.05930 | -89.97083 | 338 ft | 12 kts | 271° |
| 2026-04-24 21:18 | 35.05916 | -89.97159 | 333 ft | 7 kts | 228° |
| 2026-04-24 21:18 | 35.05868 | -89.97184 | 334 ft | 9 kts | 189° |
| 2026-04-24 21:18 | 35.05796 | -89.97190 | 335 ft | 12 kts | 182° |
| 2026-04-24 21:18 | 35.05706 | -89.97192 | 335 ft | 14 kts | 180° |
| 2026-04-24 21:19 | 35.05655 | -89.97207 | 333 ft | 2 kts | 227° |
| 2026-04-24 21:19 | 35.05629 | -89.97251 | 334 ft | 11 kts | 233° |
| 2026-04-24 21:19 | 35.05566 | -89.97361 | 337 ft | 15 kts | 237° |
| 2026-04-24 21:19 | 35.05527 | -89.97430 | 333 ft | 9 kts | 235° |
| 2026-04-24 21:20 | 35.05497 | -89.97484 | 332 ft | 0 kts | 236° |
| 2026-04-24 21:20 | 35.05483 | -89.97509 | 332 ft | 10 kts | 234° |
| 2026-04-24 21:20 | 35.05431 | -89.97591 | 330 ft | 12 kts | 225° |
| 2026-04-24 21:21 | 35.05363 | -89.97615 | 329 ft | 5 kts | 179° |
| 2026-04-24 21:23 | 35.05298 | -89.97612 | 329 ft | 35 kts | 179° |
| 2026-04-24 21:23 | 35.04752 | -89.97604 | 326 ft | 119 kts | 179° |
| 2026-04-24 21:23 | 35.03693 | -89.97582 | 371 ft | 179 kts | 178° |
| 2026-04-24 21:24 | 35.02390 | -89.97528 | 958 ft | 194 kts | 176° |
| 2026-04-24 21:24 | 35.01092 | -89.97484 | 2078 ft | 179 kts | 181° |
| 2026-04-24 21:24 | 34.99917 | -89.97473 | 3371 ft | 169 kts | 182° |
| 2026-04-24 21:24 | 34.98667 | -89.97460 | 3984 ft | 196 kts | 182° |
| 2026-04-24 21:25 | 34.97209 | -89.97439 | 4407 ft | 223 kts | 181° |
| 2026-04-24 21:25 | 34.95542 | -89.97411 | 4594 ft | 252 kts | 181° |
| 2026-04-24 21:25 | 34.93774 | -89.97374 | 5280 ft | 257 kts | 181° |
| 2026-04-24 21:25 | 34.91984 | -89.97334 | 6269 ft | 259 kts | 182° |
| 2026-04-24 21:26 | 34.90173 | -89.97295 | 7194 ft | 263 kts | 182° |
| 2026-04-24 21:26 | 34.88323 | -89.97270 | 8070 ft | 269 kts | 185° |
| 2026-04-24 21:26 | 34.86467 | -89.97382 | 8955 ft | 273 kts | 188° |
| 2026-04-24 21:26 | 34.84558 | -89.97561 | 9833 ft | 278 kts | 189° |
| 2026-04-24 21:27 | 34.82587 | -89.97763 | 10295 ft | 298 kts | 189° |
| 2026-04-24 21:27 | 34.80418 | -89.97995 | 10439 ft | 328 kts | 189° |
| 2026-04-24 21:27 | 34.78042 | -89.98246 | 10710 ft | 352 kts | 188° |
| 2026-04-24 21:27 | 34.75585 | -89.98493 | 11523 ft | 357 kts | 188° |
| 2026-04-24 21:28 | 34.73090 | -89.98740 | 12352 ft | 362 kts | 188° |
| 2026-04-24 21:28 | 34.70562 | -89.99025 | 13106 ft | 366 kts | 192° |
| 2026-04-24 21:28 | 34.68080 | -89.99736 | 13849 ft | 368 kts | 200° |
| 2026-04-24 21:28 | 34.65675 | -90.00723 | 14507 ft | 372 kts | 203° |
| 2026-04-24 21:29 | 34.63240 | -90.01830 | 15188 ft | 376 kts | 204° |
| 2026-04-24 21:29 | 34.60785 | -90.02970 | 15863 ft | 380 kts | 204° |
| 2026-04-24 21:29 | 34.58301 | -90.04118 | 16518 ft | 384 kts | 204° |
| 2026-04-24 21:29 | 34.55786 | -90.05269 | 17166 ft | 388 kts | 204° |
| 2026-04-24 21:30 | 34.53239 | -90.06422 | 17798 ft | 393 kts | 204° |
| 2026-04-24 21:30 | 34.50665 | -90.07581 | 18390 ft | 397 kts | 204° |
| 2026-04-24 21:30 | 34.48061 | -90.08731 | 18897 ft | 401 kts | 201° |
| 2026-04-24 21:30 | 34.45335 | -90.09542 | 19415 ft | 407 kts | 193° |
| 2026-04-24 21:31 | 34.42556 | -90.10038 | 19923 ft | 411 kts | 190° |
| 2026-04-24 21:31 | 34.39696 | -90.10417 | 20436 ft | 415 kts | 189° |
| 2026-04-24 21:31 | 34.36812 | -90.10763 | 20972 ft | 418 kts | 189° |
| 2026-04-24 21:31 | 34.33909 | -90.11116 | 21505 ft | 421 kts | 189° |
| 2026-04-24 21:32 | 34.30982 | -90.11487 | 22050 ft | 424 kts | 189° |
| 2026-04-24 21:32 | 34.28041 | -90.11873 | 22589 ft | 427 kts | 189° |
| 2026-04-24 21:32 | 34.25073 | -90.12273 | 23149 ft | 430 kts | 189° |
| 2026-04-24 21:32 | 34.22086 | -90.12680 | 23663 ft | 434 kts | 189° |
| 2026-04-24 21:33 | 34.19075 | -90.13092 | 24156 ft | 436 kts | 189° |
| 2026-04-24 21:33 | 34.17073 | -90.13367 | 24483 ft | 438 kts | 189° |
| 2026-04-24 21:33 | 34.13048 | -90.13919 | 25132 ft | 442 kts | 189° |
| 2026-04-24 21:33 | 34.09972 | -90.14245 | 25601 ft | 447 kts | 184° |
| 2026-04-24 21:34 | 34.06855 | -90.13969 | 26098 ft | 454 kts | 171° |
| 2026-04-24 21:34 | 34.03809 | -90.12855 | 26559 ft | 461 kts | 161° |
| 2026-04-24 21:34 | 34.00865 | -90.11262 | 27037 ft | 466 kts | 156° |
| 2026-04-24 21:34 | 33.97958 | -90.09498 | 27515 ft | 469 kts | 155° |
| 2026-04-24 21:35 | 33.95036 | -90.07708 | 27966 ft | 472 kts | 155° |
| 2026-04-24 21:35 | 33.92112 | -90.05964 | 28369 ft | 477 kts | 156° |
| 2026-04-24 21:35 | 33.89075 | -90.04210 | 28826 ft | 480 kts | 156° |
| 2026-04-24 21:35 | 33.86081 | -90.02522 | 29279 ft | 483 kts | 157° |
| 2026-04-24 21:36 | 33.83020 | -90.00822 | 29722 ft | 486 kts | 157° |
| 2026-04-24 21:36 | 33.79939 | -89.99123 | 30104 ft | 489 kts | 157° |
| 2026-04-24 21:36 | 33.76838 | -89.97418 | 30483 ft | 490 kts | 157° |
| 2026-04-24 21:36 | 33.73735 | -89.95711 | 30915 ft | 490 kts | 157° |
| 2026-04-24 21:37 | 33.70642 | -89.94009 | 31393 ft | 488 kts | 157° |
| 2026-04-24 21:37 | 33.67559 | -89.92313 | 31844 ft | 487 kts | 157° |
| 2026-04-24 21:37 | 33.64483 | -89.90621 | 32292 ft | 486 kts | 156° |
| 2026-04-24 21:37 | 33.61456 | -89.88957 | 32746 ft | 484 kts | 156° |
| 2026-04-24 21:38 | 33.58399 | -89.87278 | 33191 ft | 483 kts | 156° |
| 2026-04-24 21:38 | 33.55355 | -89.85608 | 33597 ft | 481 kts | 156° |
| 2026-04-24 21:38 | 33.52309 | -89.83938 | 33993 ft | 480 kts | 156° |
| 2026-04-24 21:38 | 33.49281 | -89.82279 | 34339 ft | 478 kts | 157° |
| 2026-04-24 21:39 | 33.46256 | -89.80623 | 34683 ft | 477 kts | 157° |
| 2026-04-24 21:39 | 33.43234 | -89.78970 | 34841 ft | 479 kts | 157° |
| 2026-04-24 21:39 | 33.40195 | -89.77309 | 34877 ft | 480 kts | 157° |
| 2026-04-24 21:40 | 33.34152 | -89.74010 | 34897 ft | 481 kts | 157° |
| 2026-04-24 21:40 | 33.28066 | -89.70698 | 34883 ft | 481 kts | 157° |
| 2026-04-24 21:41 | 33.21971 | -89.67395 | 34884 ft | 481 kts | 157° |
| 2026-04-24 21:41 | 33.15886 | -89.64094 | 34879 ft | 481 kts | 157° |
| 2026-04-24 21:42 | 33.09768 | -89.60775 | 34878 ft | 485 kts | 157° |
| 2026-04-24 21:42 | 33.03662 | -89.57466 | 34872 ft | 486 kts | 157° |
| 2026-04-24 21:43 | 32.97508 | -89.54137 | 34876 ft | 486 kts | 157° |
| 2026-04-24 21:43 | 32.91349 | -89.50810 | 34891 ft | 486 kts | 157° |
| 2026-04-24 21:44 | 32.85177 | -89.47481 | 34888 ft | 490 kts | 158° |
| 2026-04-24 21:44 | 32.78980 | -89.44146 | 34887 ft | 494 kts | 158° |
| 2026-04-24 21:45 | 32.72721 | -89.40780 | 34883 ft | 494 kts | 158° |
| 2026-04-24 21:45 | 32.66460 | -89.37419 | 34839 ft | 494 kts | 158° |
| 2026-04-24 21:46 | 32.60195 | -89.34060 | 34812 ft | 495 kts | 159° |
| 2026-04-24 21:46 | 32.53909 | -89.30700 | 34817 ft | 502 kts | 159° |
| 2026-04-24 21:47 | 32.47531 | -89.27306 | 34828 ft | 503 kts | 159° |
| 2026-04-24 21:47 | 32.41144 | -89.23906 | 34826 ft | 503 kts | 159° |
| 2026-04-24 21:48 | 32.34802 | -89.20529 | 34879 ft | 497 kts | 158° |
| 2026-04-24 21:48 | 32.28509 | -89.17182 | 34888 ft | 502 kts | 159° |
| 2026-04-24 21:49 | 32.22149 | -89.13805 | 34857 ft | 502 kts | 159° |
| 2026-04-24 21:49 | 32.15763 | -89.10420 | 34891 ft | 503 kts | 159° |
| 2026-04-24 21:50 | 32.09382 | -89.07041 | 34898 ft | 503 kts | 159° |
| 2026-04-24 21:50 | 32.03020 | -89.03679 | 34895 ft | 507 kts | 159° |
| 2026-04-24 21:51 | 31.96559 | -89.00270 | 34900 ft | 509 kts | 159° |
| 2026-04-24 21:51 | 31.90092 | -88.96862 | 34905 ft | 510 kts | 159° |
| 2026-04-24 21:52 | 31.83620 | -88.93456 | 34906 ft | 510 kts | 159° |
| 2026-04-24 21:52 | 31.77146 | -88.90058 | 34903 ft | 510 kts | 159° |
| 2026-04-24 21:53 | 31.70687 | -88.86685 | 34910 ft | 512 kts | 159° |
| 2026-04-24 21:53 | 31.64187 | -88.83288 | 34913 ft | 509 kts | 159° |
| 2026-04-24 21:54 | 31.57734 | -88.79914 | 34915 ft | 507 kts | 159° |
| 2026-04-24 21:54 | 31.51313 | -88.76492 | 34910 ft | 508 kts | 156° |
| 2026-04-24 21:55 | 31.44936 | -88.72771 | 34920 ft | 514 kts | 157° |
| 2026-04-24 21:55 | 31.38518 | -88.69222 | 34910 ft | 512 kts | 159° |
| 2026-04-24 21:55 | 31.35268 | -88.67498 | 34657 ft | 511 kts | 159° |
| 2026-04-24 21:56 | 31.32026 | -88.65805 | 34305 ft | 510 kts | 159° |
| 2026-04-24 21:56 | 31.28784 | -88.64123 | 33734 ft | 510 kts | 159° |
| 2026-04-24 21:56 | 31.25540 | -88.62441 | 33043 ft | 509 kts | 159° |
| 2026-04-24 21:56 | 31.22308 | -88.60765 | 32393 ft | 509 kts | 159° |
| 2026-04-24 21:57 | 31.19059 | -88.59079 | 31764 ft | 512 kts | 159° |
| 2026-04-24 21:57 | 31.15851 | -88.57413 | 31147 ft | 512 kts | 159° |
| 2026-04-24 21:57 | 31.12600 | -88.55724 | 30530 ft | 511 kts | 159° |
| 2026-04-24 21:57 | 31.09357 | -88.54040 | 29891 ft | 510 kts | 159° |
| 2026-04-24 21:58 | 31.06118 | -88.52359 | 29119 ft | 509 kts | 159° |
| 2026-04-24 21:58 | 31.02876 | -88.50678 | 28407 ft | 511 kts | 159° |
| 2026-04-24 21:58 | 30.99621 | -88.48997 | 27723 ft | 512 kts | 159° |
| 2026-04-24 21:58 | 30.96356 | -88.47314 | 27026 ft | 514 kts | 159° |
| 2026-04-24 21:59 | 30.93089 | -88.45630 | 26335 ft | 512 kts | 158° |
| 2026-04-24 21:59 | 30.89894 | -88.43981 | 25668 ft | 507 kts | 158° |
| 2026-04-24 21:59 | 30.86678 | -88.42321 | 24997 ft | 504 kts | 158° |
| 2026-04-24 21:59 | 30.83484 | -88.40672 | 24334 ft | 500 kts | 158° |
| 2026-04-24 22:00 | 30.80345 | -88.38966 | 23674 ft | 497 kts | 154° |
| 2026-04-24 22:00 | 30.77447 | -88.36792 | 22854 ft | 496 kts | 141° |
| 2026-04-24 22:00 | 30.75040 | -88.33950 | 22101 ft | 491 kts | 128° |
| 2026-04-24 22:00 | 30.73286 | -88.30591 | 21398 ft | 485 kts | 113° |
| 2026-04-24 22:01 | 30.72278 | -88.26886 | 20730 ft | 478 kts | 98° |
| 2026-04-24 22:01 | 30.72060 | -88.23080 | 20094 ft | 469 kts | 84° |
| 2026-04-24 22:01 | 30.72498 | -88.19405 | 19468 ft | 463 kts | 76° |
| 2026-04-24 22:01 | 30.73164 | -88.15770 | 18842 ft | 458 kts | 76° |
| 2026-04-24 22:02 | 30.73774 | -88.12152 | 18223 ft | 454 kts | 78° |
| 2026-04-24 22:02 | 30.74250 | -88.08533 | 17518 ft | 450 kts | 81° |
| 2026-04-24 22:02 | 30.74607 | -88.04939 | 16843 ft | 446 kts | 82° |
| 2026-04-24 22:02 | 30.74885 | -88.01364 | 16192 ft | 441 kts | 83° |
| 2026-04-24 22:03 | 30.75121 | -87.97828 | 15571 ft | 437 kts | 84° |
| 2026-04-24 22:03 | 30.75337 | -87.94324 | 14984 ft | 432 kts | 84° |
| 2026-04-24 22:03 | 30.75544 | -87.90899 | 14401 ft | 428 kts | 84° |
| 2026-04-24 22:03 | 30.75751 | -87.87470 | 13817 ft | 424 kts | 84° |
| 2026-04-24 22:04 | 30.75957 | -87.84075 | 13183 ft | 419 kts | 84° |
| 2026-04-24 22:04 | 30.76164 | -87.80701 | 12581 ft | 416 kts | 84° |
| 2026-04-24 22:04 | 30.76369 | -87.77367 | 11998 ft | 411 kts | 85° |
| 2026-04-24 22:04 | 30.76572 | -87.74059 | 11445 ft | 409 kts | 85° |
| 2026-04-24 22:05 | 30.76772 | -87.70777 | 11042 ft | 405 kts | 85° |
| 2026-04-24 22:05 | 30.76969 | -87.67541 | 10873 ft | 394 kts | 85° |
| 2026-04-24 22:05 | 30.77153 | -87.64488 | 10748 ft | 373 kts | 85° |
| 2026-04-24 22:05 | 30.77329 | -87.61556 | 10624 ft | 355 kts | 85° |
| 2026-04-24 22:06 | 30.77498 | -87.58752 | 10499 ft | 337 kts | 85° |
| 2026-04-24 22:06 | 30.77653 | -87.56150 | 10374 ft | 311 kts | 85° |
| 2026-04-24 22:06 | 30.77798 | -87.53723 | 10092 ft | 291 kts | 85° |
| 2026-04-24 22:06 | 30.77935 | -87.51430 | 9663 ft | 279 kts | 85° |
| 2026-04-24 22:07 | 30.78065 | -87.49249 | 9198 ft | 263 kts | 86° |
| 2026-04-24 22:07 | 30.78188 | -87.47163 | 8792 ft | 255 kts | 86° |
| 2026-04-24 22:07 | 30.78310 | -87.45106 | 8380 ft | 255 kts | 86° |
| 2026-04-24 22:07 | 30.78430 | -87.43078 | 8003 ft | 254 kts | 86° |
| 2026-04-24 22:08 | 30.78550 | -87.41041 | 7612 ft | 251 kts | 86° |
| 2026-04-24 22:08 | 30.78668 | -87.39029 | 7255 ft | 249 kts | 86° |
| 2026-04-24 22:08 | 30.78785 | -87.37018 | 6910 ft | 249 kts | 87° |
| 2026-04-24 22:08 | 30.78902 | -87.35016 | 6554 ft | 245 kts | 86° |
| 2026-04-24 22:09 | 30.79013 | -87.33109 | 6213 ft | 227 kts | 87° |
| 2026-04-24 22:09 | 30.79092 | -87.31339 | 5864 ft | 212 kts | 92° |
| 2026-04-24 22:09 | 30.78897 | -87.29700 | 5550 ft | 204 kts | 110° |
| 2026-04-24 22:09 | 30.78265 | -87.28258 | 5286 ft | 199 kts | 130° |
| 2026-04-24 22:10 | 30.77261 | -87.27198 | 5022 ft | 194 kts | 152° |
| 2026-04-24 22:10 | 30.76029 | -87.26615 | 4760 ft | 191 kts | 167° |
| 2026-04-24 22:10 | 30.74748 | -87.26229 | 4490 ft | 189 kts | 169° |
| 2026-04-24 22:10 | 30.73480 | -87.25868 | 4210 ft | 187 kts | 169° |
| 2026-04-24 22:11 | 30.72214 | -87.25511 | 3943 ft | 188 kts | 168° |
| 2026-04-24 22:11 | 30.70949 | -87.25157 | 3701 ft | 186 kts | 169° |
| 2026-04-24 22:11 | 30.69697 | -87.24811 | 3433 ft | 185 kts | 169° |
| 2026-04-24 22:11 | 30.68459 | -87.24473 | 3184 ft | 185 kts | 169° |
| 2026-04-24 22:12 | 30.67214 | -87.24137 | 2912 ft | 182 kts | 169° |
| 2026-04-24 22:12 | 30.65994 | -87.23807 | 2671 ft | 177 kts | 170° |
| 2026-04-24 22:12 | 30.64796 | -87.23485 | 2518 ft | 177 kts | 169° |
| 2026-04-24 22:12 | 30.63606 | -87.23164 | 2341 ft | 174 kts | 170° |
| 2026-04-24 22:13 | 30.62426 | -87.22848 | 2229 ft | 175 kts | 168° |
| 2026-04-24 22:13 | 30.61251 | -87.22532 | 2009 ft | 173 kts | 168° |
| 2026-04-24 22:13 | 30.60078 | -87.22218 | 1755 ft | 169 kts | 168° |
| 2026-04-24 22:13 | 30.59011 | -87.21930 | 1662 ft | 155 kts | 169° |
| 2026-04-24 22:14 | 30.57958 | -87.21648 | 1690 ft | 156 kts | 168° |
| 2026-04-24 22:14 | 30.56895 | -87.21363 | 1697 ft | 158 kts | 168° |
| 2026-04-24 22:14 | 30.55818 | -87.21076 | 1660 ft | 159 kts | 168° |
| 2026-04-24 22:14 | 30.54748 | -87.20791 | 1413 ft | 156 kts | 167° |
| 2026-04-24 22:15 | 30.53699 | -87.20508 | 1226 ft | 155 kts | 168° |
| 2026-04-24 22:15 | 30.52645 | -87.20227 | 1001 ft | 158 kts | 167° |
| 2026-04-24 22:15 | 30.51571 | -87.19938 | 812 ft | 156 kts | 168° |
| 2026-04-24 22:15 | 30.50523 | -87.19661 | 595 ft | 155 kts | 165° |
| 2026-04-24 22:16 | 30.49487 | -87.19386 | 372 ft | 154 kts | 165° |
| 2026-04-24 22:16 | 30.48434 | -87.19096 | 186 ft | 156 kts | 167° |
| 2026-04-24 22:16 | 30.47451 | -87.18840 | 130 ft | 129 kts | 166° |
| 2026-04-24 22:16 | 30.46779 | -87.18660 | 136 ft | 57 kts | 166° |
| 2026-04-24 22:17 | 30.46523 | -87.18593 | 137 ft | 28 kts | 168° |
| 2026-04-24 22:17 | 30.46431 | -87.18602 | 137 ft | 2 kts | 222° |
| 2026-04-24 22:17 | 30.46422 | -87.18622 | 137 ft | 6 kts | 243° |
| 2026-04-24 22:17 | 30.46409 | -87.18685 | 137 ft | 7 kts | 275° |
| 2026-04-24 22:18 | 30.46436 | -87.18721 | 137 ft | 6 kts | 323° |
| 2026-04-24 22:18 | 30.46486 | -87.18743 | 137 ft | 9 kts | 345° |
| 2026-04-24 22:18 | 30.46559 | -87.18765 | 141 ft | 13 kts | 346° |
| 2026-04-24 22:18 | 30.46657 | -87.18791 | 132 ft | 16 kts | 347° |
| 2026-04-24 22:19 | 30.46780 | -87.18825 | 132 ft | 19 kts | 347° |
| 2026-04-24 22:19 | 30.46904 | -87.18857 | 132 ft | 17 kts | 347° |
| 2026-04-24 22:19 | 30.47014 | -87.18886 | 132 ft | 15 kts | 346° |
| 2026-04-24 22:19 | 30.47108 | -87.18910 | 132 ft | 8 kts | 347° |
| 2026-04-24 22:20 | 30.47137 | -87.18918 | 131 ft | 0 kts | 347° |
| 2026-04-24 22:20 | 30.47142 | -87.18919 | 131 ft | 3 kts | 347° |
| 2026-04-24 22:20 | 30.47179 | -87.18929 | 131 ft | 6 kts | 347° |
| 2026-04-24 22:20 | 30.47223 | -87.18941 | 128 ft | 8 kts | 347° |
| 2026-04-24 22:21 | 30.47282 | -87.18957 | 124 ft | 10 kts | 347° |
| 2026-04-24 22:21 | 30.47345 | -87.18973 | 127 ft | 8 kts | 347° |
| 2026-04-24 22:21 | 30.47401 | -87.18988 | 131 ft | 10 kts | 347° |
| 2026-04-24 22:21 | 30.47471 | -87.19007 | 132 ft | 10 kts | 346° |
| 2026-04-24 22:22 | 30.47540 | -87.19026 | 132 ft | 10 kts | 346° |
| 2026-04-24 22:22 | 30.47608 | -87.19045 | 132 ft | 10 kts | 347° |
| 2026-04-24 22:22 | 30.47678 | -87.19063 | 132 ft | 10 kts | 348° |
| 2026-04-24 22:22 | 30.47749 | -87.19081 | 132 ft | 10 kts | 347° |
| 2026-04-24 22:23 | 30.47820 | -87.19101 | 132 ft | 10 kts | 343° |
| 2026-04-24 22:23 | 30.47882 | -87.19146 | 132 ft | 11 kts | 319° |
| 2026-04-24 22:23 | 30.47894 | -87.19183 | 132 ft | 3 kts | 265° |
| 2026-04-24 22:23 | 30.47889 | -87.19199 | 132 ft | 2 kts | 252° |
| 2026-04-24 22:24 | 30.47878 | -87.19221 | 134 ft | 4 kts | 237° |
| 2026-04-24 22:24 | 30.47871 | -87.19233 | 133 ft | 0 kts | 233° |